AirNav   Air Wisconsin Up To $57,000 Bonus
 
 1269 users online  

60C Elroy Municipal Airport
Elroy, Wisconsin, USA

GOING TO ELROY?


FAA INFORMATION EFFECTIVE 07 NOVEMBER 2019

Location

FAA Identifier: 60C
Lat/Long: 43-42-22.9010N 090-15-27.4620W
43-42.381683N 090-15.457700W
43.7063614,-90.2576283
(estimated)
Elevation: 944 ft. / 287.7 m (surveyed)
Variation: 01E (1985)
From city: 2 miles S of ELROY, WI
Time zone: UTC -6 (UTC -5 during Daylight Saving Time)
Zip code: 53929

Airport Operations

Airport use: Open to the public
Activation date: 05/1965
Control tower: no
ARTCC: CHICAGO CENTER
FSS: GREEN BAY FLIGHT SERVICE STATION
NOTAMs facility: GRB (NOTAM-D service available)
Attendance: UNATNDD
Wind indicator: no
Segmented circle: yes
Lights: SS-SR

Airport Communications

CTAF: 122.9
WX AWOS-3 at 82C (9 nm NE): 123.925 (608-562-6153)
WX AWOS-3PT at C35 (16 nm SE): 118.95 (608-768-0023)

Nearby radio navigation aids

VOR radial/distance  VOR name  Freq  Var
DLLr291/23.4DELLS VORTAC117.0003E
LNRr348/25.3LONE ROCK VOR/DME112.8000E

 
NDB name  Hdg/Dist  Freq  Var  ID
MCCOY130/21.741200ECMY -.-. -- -.--

Airport Services

Parking: tiedowns
Airframe service: NONE
Powerplant service: NONE
Bottled oxygen: NONE
Bulk oxygen: NONE

Runway Information

Runway 6/24

Dimensions: 3085 x 100 ft. / 940 x 30 m
Surface: turf/gravel, in poor condition
2550 FT BY 34 FT GRVL SUPERIMPOSED ON TURF RY; SFC PATCHY & ROUGH.
Runway edge lights: non-standard
NSTD LIRL THLD LGTS, ALL GREEN LENSES.
RUNWAY 6  RUNWAY 24
Latitude: 43-42.249000N43-42.514333N
Longitude: 090-15.756167W090-15.159167W
Elevation: 944.0 ft.944.0 ft.
Traffic pattern: leftright
Markings: nonenone
Obstructions: 55 ft. trees, 780 ft. from runway, 50 ft. left of centerline, 14:1 slope to clear50 ft. tree, 30 ft. from runway, 50 ft. left of centerline

Airport Ownership and Management from official FAA records

Ownership: Privately-owned
Owner: ELROY AIRPORT INC.
N1862 HWY 80
ELROY, WI 53929
Phone (608) 547-4645
Manager: MIKE ERICKSON
BOX 74
ELROY, WI 53929
Phone (608) 547-4645
EMAIL ADDRESS: MGEVENTURES127@GMAIL.COM (ALL LOWER CASE)

Airport Operational Statistics

Aircraft based on the field: 1
Single engine airplanes: 1
    
Aircraft operations: avg 83/month *
50% transient general aviation
50% local general aviation
* for 12-month period ending 27 September 2018

Additional Remarks

TALL BLUFFS & TREES LCTD ON BOTH SIDES OF RY.
FOR CD CTC CHICAGO ARTCC AT 630-906-8921.

Instrument Procedures

There are no published instrument procedures at 60C.

Some nearby airports with instrument procedures:

82C - Mauston-New Lisbon Union Airport (9 nm NE)
KVOK - Volk Field Airport (14 nm N)
C35 - Reedsburg Municipal Airport (16 nm SE)
Y72 - Bloyer Field Airport (19 nm NW)
KDAF - Necedah Airport (21 nm N)
 
Loc | Ops | Rwys | IFR | FBO | Links
Com | Nav | Svcs | Stats | Notes
Area around 60C (Elroy Municipal Airport)
 
Road maps at: MapQuest Bing Google
 
Aerial photo
No photo
 
Sectional chart

 
Airport distance calculator
Flying to Elroy Municipal Airport? Find the distance to fly.

From to 60C

Sunrise and sunset
Times for 15-Nov-2019
 Local
(UTC-6)
 Zulu
(UTC)
Morning civil twilight06:2512:25
Sunrise06:5612:56
Sunset16:3522:35
Evening civil twilight17:0623:06

Current date and time
Zulu (UTC)  15-Nov-2019 15:50:32
Local (UTC-6)  15-Nov-2019 09:50:32
 
METAR
K82C 
9nm NE 
151535Z AUTO 32006KT 10SM CLR 02/M03 A3032 RMK AO2 T00221030
KVOK 
13nm N 
151456Z 33008KT 10SM FEW023 SCT250 02/M02 A3031 RMK AO2A SLP279 52018
KC35 
16nm SE 
151535Z AUTO 27003KT 10SM CLR 00/M04 A3032 RMK AO2 T00001042 PWINO
TAF
KVOK 
13nm N 
150900Z 1509/1615 26007KT 9999 BKN020 620204 QNH3020INS BECMG 1517/1518 VRB06KT 9999 FEW015 SCT020 QNH3030INS WND 16009KT AFT 1600 BECMG 1612/1613 17012G18KT 9999 SCT015 BKN020 QNH3030INS TX01/1517Z TNM08/1509Z
NOTAMs
Click for the latest NOTAMs
NOTAMs are issued by the DoD/FAA and will open in a separate window not controlled by AirNav.

 

 
 

Would you like to see your business listed on this page?

 If your business provides an interesting product or service to pilots, flight crews, aircraft, or users of the Elroy Municipal Airport, you should consider listing it here.  To start the listing process, click on the button below
 
Add a business
 

Other Pages about Elroy Municipal Airport

Page from the Wisconsin airport directory (PDF)
 
Update a link
 
Copyright © AirNav, LLC. All rights reserved. Privacy Policy  Contact